Time;durP1;ratioP1;P1;durP2;ratioP2;P2;SDS_P1;SDS_P2;PMS_P1;PMS_P2;Temp;Humidity;BMP_temperature;BMP_pressure;BME280_temperature;BME280_humidity;BME280_pressure;Samples;Min_cycle;Max_cycle;Signal;HPM_P1;HPM_P2
2021/06/22 00:02:24;;;;;;;5.65;5.03;;;;;;;19.44;100.00;98104.81;4865730;28;105794;-71
2021/06/22 00:04:52;;;;;;;6.88;6.00;;;;;;;19.52;100.00;98106.59;4865343;28;104080;-72
2021/06/22 00:07:20;;;;;;;9.90;7.22;;;;;;;19.13;100.00;98092.50;4866104;28;103263;-74
2021/06/22 00:09:49;;;;;;;8.45;7.07;;;;;;;19.08;100.00;98087.69;4864700;28;105663;-72
2021/06/22 00:12:17;;;;;;;11.93;6.53;;;;;;;19.04;100.00;98087.19;4849229;28;105312;-72
2021/06/22 00:14:45;;;;;;;9.77;6.63;;;;;;;19.18;100.00;98085.59;4866607;28;103104;-73
2021/06/22 00:17:13;;;;;;;8.20;4.50;;;;;;;19.40;100.00;98089.28;4862369;28;103149;-72
2021/06/22 00:19:43;;;;;;;4.72;4.28;;;;;;;19.54;100.00;98083.13;4859770;28;105091;-72
2021/06/22 00:22:11;;;;;;;3.88;2.88;;;;;;;19.78;100.00;98085.59;4859559;28;104951;-72
2021/06/22 00:24:39;;;;;;;4.22;3.13;;;;;;;19.95;100.00;98096.97;4869016;28;103055;-72
2021/06/22 00:27:07;;;;;;;3.92;2.63;;;;;;;20.04;97.96;98102.03;4869765;28;103229;-73
2021/06/22 00:29:35;;;;;;;4.18;3.15;;;;;;;19.94;96.07;98106.84;4868385;28;103923;-72
2021/06/22 00:32:04;;;;;;;2.95;2.03;;;;;;;19.97;93.82;98102.97;4869242;28;104995;-72
2021/06/22 00:34:32;;;;;;;4.47;2.13;;;;;;;19.69;93.98;98102.75;4869769;28;103175;-72
2021/06/22 00:37:01;;;;;;;3.42;1.88;;;;;;;19.07;95.93;98099.41;4869925;28;103146;-72
2021/06/22 00:39:29;;;;;;;5.35;2.42;;;;;;;18.69;98.01;98098.47;4869463;28;103212;-73
2021/06/22 00:41:57;;;;;;;4.57;2.30;;;;;;;18.71;97.85;98101.81;4869010;28;103729;-72
2021/06/22 00:44:25;;;;;;;5.85;2.05;;;;;;;18.96;97.28;98097.97;4868262;28;102960;-72
2021/06/22 00:46:53;;;;;;;3.28;1.42;;;;;;;19.26;94.33;98098.06;4869665;28;102697;-72
2021/06/22 00:49:22;;;;;;;4.85;1.67;;;;;;;19.43;93.33;98107.66;4848954;29;103756;-72
2021/06/22 00:51:50;;;;;;;3.47;2.03;;;;;;;19.17;94.33;98112.56;4863275;28;104855;-72
2021/06/22 00:54:22;;;;;;;3.55;1.90;;;;;;;18.95;96.95;98104.31;4839893;28;102985;-72
2021/06/22 00:56:51;;;;;;;5.47;2.05;;;;;;;18.82;97.09;98105.91;4851397;28;102984;-72
2021/06/22 00:59:19;;;;;;;2.03;1.60;;;;;;;18.77;97.50;98100.28;4852144;28;103778;-72
2021/06/22 01:01:48;;;;;;;4.10;1.85;;;;;;;18.83;95.89;98084.34;4862999;28;103718;-72
2021/06/22 01:04:16;;;;;;;3.25;1.90;;;;;;;18.99;94.95;98089.59;4852351;28;103134;-72
2021/06/22 01:06:57;;;;;;;3.40;1.80;;;;;;;19.00;93.64;98085.88;4849982;28;103147;-72
2021/06/22 01:09:28;;;;;;;1.60;1.40;;;;;;;19.01;93.81;98098.25;4848563;29;105218;-72
2021/06/22 01:11:57;;;;;;;3.92;1.48;;;;;;;19.02;93.92;98091.06;4854309;28;104168;-72
2021/06/22 01:14:27;;;;;;;3.75;2.20;;;;;;;18.80;94.30;98090.06;4852317;28;102692;-72
2021/06/22 01:16:56;;;;;;;2.50;1.95;;;;;;;18.55;95.86;98093.88;4868895;28;102945;-72
2021/06/22 01:19:25;;;;;;;5.20;1.95;;;;;;;18.60;96.20;98088.84;4866027;28;103422;-71
2021/06/22 01:21:58;;;;;;;1.55;1.38;;;;;;;18.82;95.06;98085.34;4867528;28;105219;-72
2021/06/22 01:24:48;;;;;;;2.15;1.45;;;;;;;19.00;93.74;98101.94;4860077;28;102944;-72
2021/06/22 01:27:20;;;;;;;1.63;1.45;;;;;;;19.09;94.03;98100.88;4868981;28;103059;-73
2021/06/22 01:29:48;;;;;;;2.80;1.88;;;;;;;18.97;94.87;98113.03;4868307;28;105661;-72
2021/06/22 01:32:18;;;;;;;4.05;1.90;;;;;;;18.84;95.59;98112.75;4851290;28;105292;-73
2021/06/22 01:34:47;;;;;;;2.63;1.55;;;;;;;18.92;95.61;98102.00;4865164;28;103200;-72
2021/06/22 01:37:16;;;;;;;3.47;2.00;;;;;;;18.92;95.62;98099.31;4868546;28;102961;-72
2021/06/22 01:39:53;;;;;;;3.85;1.85;;;;;;;18.97;95.02;98098.81;4867961;28;104915;-72
2021/06/22 01:42:23;;;;;;;2.30;1.65;;;;;;;19.00;94.92;98090.44;4844819;28;103825;-72
2021/06/22 01:44:54;;;;;;;2.53;1.95;;;;;;;19.02;93.96;98096.44;4866283;28;102927;-71
2021/06/22 01:47:23;;;;;;;2.58;1.70;;;;;;;19.05;94.19;98096.06;4860429;28;103042;-72
2021/06/22 01:49:58;;;;;;;6.65;2.42;;;;;;;18.95;95.25;98104.31;4857449;28;105943;-72
2021/06/22 01:52:27;;;;;;;3.38;2.00;;;;;;;18.84;95.50;98107.41;4858484;28;103708;-72
2021/06/22 01:54:58;;;;;;;2.67;1.80;;;;;;;18.59;97.92;98103.22;4854518;28;103152;-73
2021/06/22 01:57:26;;;;;;;5.80;2.80;;;;;;;18.29;99.71;98101.31;4868681;28;103087;-72
2021/06/22 02:00:07;;;;;;;4.70;2.55;;;;;;;18.18;100.00;98094.53;4866219;28;105827;-72
2021/06/22 02:02:49;;;;;;;5.63;2.70;;;;;;;18.18;100.00;98088.34;4862903;28;103601;-73
2021/06/22 02:05:18;;;;;;;4.28;2.25;;;;;;;18.27;100.00;98100.66;4868453;28;103180;-72
2021/06/22 02:07:49;;;;;;;4.82;2.33;;;;;;;18.49;97.98;98092.75;4832561;28;103282;-72
2021/06/22 02:10:21;;;;;;;2.13;1.70;;;;;;;18.55;97.02;98099.22;4853610;28;105357;-72
2021/06/22 02:13:07;;;;;;;3.72;2.17;;;;;;;18.60;95.93;98098.69;4868119;28;103839;-72
2021/06/22 02:15:38;;;;;;;2.72;1.88;;;;;;;18.48;97.10;98108.94;4867796;28;103008;-74
2021/06/22 02:18:07;;;;;;;2.20;1.60;;;;;;;18.51;97.20;98113.94;4862640;28;103039;-72
2021/06/22 02:20:37;;;;;;;1.77;1.67;;;;;;;18.58;96.70;98120.28;4867599;28;103793;-72
2021/06/22 02:23:08;;;;;;;4.57;2.30;;;;;;;18.45;97.61;98123.47;4834332;28;105309;-72
2021/06/22 02:25:37;;;;;;;2.20;2.00;;;;;;;18.54;97.98;98126.97;4867886;28;103900;-72
2021/06/22 02:28:07;;;;;;;3.25;1.90;;;;;;;18.61;96.34;98117.22;4867687;28;102918;-72
2021/06/22 02:30:37;;;;;;;2.17;2.03;;;;;;;18.52;96.54;98119.16;4865895;28;108685;-71
2021/06/22 02:33:07;;;;;;;2.95;2.50;;;;;;;18.03;99.77;98106.06;4834665;28;107512;-72
2021/06/22 02:35:35;;;;;;;5.57;2.83;;;;;;;17.92;100.00;98129.50;4864982;28;103567;-71
2021/06/22 02:38:11;;;;;;;2.55;2.03;;;;;;;18.01;100.00;98129.47;4834656;28;103065;-72
2021/06/22 02:40:45;;;;;;;3.67;1.90;;;;;;;18.22;99.42;98125.22;4866353;28;103413;-73
2021/06/22 02:43:14;;;;;;;3.22;1.92;;;;;;;18.20;99.54;98123.72;4846382;28;104170;-71
2021/06/22 02:45:43;;;;;;;2.72;1.70;;;;;;;18.30;98.43;98119.84;4865898;28;103196;-71
2021/06/22 02:48:18;;;;;;;4.15;2.40;;;;;;;18.18;98.61;98109.72;4867339;28;103097;-73
2021/06/22 02:50:47;;;;;;;2.53;2.33;;;;;;;17.86;100.00;98108.81;4865673;28;103269;-72
2021/06/22 03:01:42;;;;;;;3.47;2.03;;;;;;;18.08;100.00;98099.22;5085833;23;103818;-75
2021/06/22 03:04:13;;;;;;;4.00;2.15;;;;;;;18.19;99.77;98095.34;4848930;28;104025;-78
2021/06/22 03:06:43;;;;;;;1.65;1.55;;;;;;;18.33;98.79;98097.31;4864033;28;104704;-76
2021/06/22 03:09:29;;;;;;;4.47;2.20;;;;;;;18.30;99.54;98086.97;4861082;28;104015;-76
2021/06/22 03:11:57;;;;;;;3.42;1.70;;;;;;;18.35;98.85;98092.59;4867064;28;103451;-79
2021/06/22 03:14:27;;;;;;;1.73;1.55;;;;;;;18.46;97.51;98098.41;4866679;28;103863;-78
2021/06/22 03:17:10;;;;;;;3.25;1.45;;;;;;;18.60;96.61;98099.53;4866962;28;104260;-78
2021/06/22 03:19:43;;;;;;;2.53;1.90;;;;;;;18.67;95.99;98100.47;4853171;28;103203;-78
2021/06/22 03:22:13;;;;;;;1.75;1.65;;;;;;;18.69;96.26;98097.66;4864050;28;103079;-77
2021/06/22 03:30:32;;;;;;;6.20;2.47;;;;;;;18.10;100.00;98085.69;4850572;28;103637;-75
2021/06/22 03:33:00;;;;;;;4.75;2.47;;;;;;;18.19;100.00;98087.34;4845671;28;103753;-81
2021/06/22 03:35:29;;;;;;;2.88;2.60;;;;;;;18.28;99.83;98087.09;4865049;28;103952;-83
2021/06/22 03:37:58;;;;;;;3.28;1.90;;;;;;;18.45;98.64;98085.19;4865536;28;105828;-81
2021/06/22 03:48:11;;;;;;;7.13;3.00;;;;;;;18.10;100.00;98083.03;5058352;23;104741;-82
2021/06/22 03:50:40;;;;;;;4.85;3.28;;;;;;;17.96;100.00;98085.38;4825101;29;105234;-75
2021/06/22 03:53:10;;;;;;;4.20;3.50;;;;;;;17.82;100.00;98078.06;4821066;29;104117;-74
2021/06/22 03:55:38;;;;;;;5.35;3.55;;;;;;;17.54;100.00;98082.16;4824002;29;103372;-75
2021/06/22 03:58:13;;;;;;;5.50;3.75;;;;;;;17.62;100.00;98092.84;4813569;29;106908;-74
2021/06/22 04:00:55;;;;;;;6.57;4.07;;;;;;;17.55;100.00;98086.47;4820593;29;103195;-74
2021/06/22 04:03:30;;;;;;;6.07;4.03;;;;;;;17.68;100.00;98086.81;4810862;29;103187;-75
2021/06/22 04:06:25;;;;;;;9.65;3.97;;;;;;;17.79;100.00;98089.13;4805061;29;103651;-77
2021/06/22 04:08:58;;;;;;;3.75;3.45;;;;;;;17.84;100.00;98092.13;4822222;29;105416;-74
2021/06/22 04:11:28;;;;;;;3.47;3.20;;;;;;;17.86;100.00;98095.44;4830653;29;104042;-75
2021/06/22 04:13:58;;;;;;;5.45;3.75;;;;;;;17.90;100.00;98096.78;4840353;28;103215;-75
2021/06/22 04:16:33;;;;;;;6.78;4.22;;;;;;;17.94;100.00;98097.25;4851314;28;103419;-75
2021/06/22 04:19:04;;;;;;;6.75;4.45;;;;;;;17.96;100.00;98100.59;4843398;28;103705;-74
2021/06/22 04:21:36;;;;;;;5.00;3.50;;;;;;;18.05;100.00;98104.91;4847120;28;104430;-76
2021/06/22 04:24:06;;;;;;;7.90;4.97;;;;;;;17.76;100.00;98104.66;4840068;28;102994;-76
2021/06/22 04:26:36;;;;;;;7.13;4.85;;;;;;;17.64;100.00;98093.50;4844229;28;103349;-75
2021/06/22 04:29:05;;;;;;;6.85;4.75;;;;;;;17.59;100.00;98093.16;4827170;29;104899;-76
2021/06/22 04:31:33;;;;;;;7.53;3.92;;;;;;;17.78;100.00;98097.28;4845011;28;103649;-76
2021/06/22 04:34:01;;;;;;;7.07;5.05;;;;;;;17.83;100.00;98087.75;4827496;29;103243;-75
2021/06/22 04:36:32;;;;;;;6.05;4.05;;;;;;;18.11;100.00;98087.34;4840227;28;102885;-76
2021/06/22 04:39:00;;;;;;;9.13;5.15;;;;;;;18.04;100.00;98081.03;4831906;28;104173;-75
2021/06/22 04:41:28;;;;;;;9.70;5.40;;;;;;;17.76;100.00;98084.13;4838696;28;104593;-75
2021/06/22 04:43:56;;;;;;;6.82;5.65;;;;;;;17.65;100.00;98087.16;4841703;28;103206;-76
2021/06/22 04:46:24;;;;;;;20.13;5.20;;;;;;;17.78;100.00;98091.94;4838552;28;104263;-75
2021/06/22 04:48:52;;;;;;;7.38;5.60;;;;;;;17.66;100.00;98090.63;4840186;29;103588;-76
2021/06/22 04:51:20;;;;;;;6.10;5.50;;;;;;;17.80;100.00;98079.25;4844447;28;103320;-75
2021/06/22 04:53:50;;;;;;;5.22;4.70;;;;;;;17.79;100.00;98090.97;4826971;29;103249;-75
2021/06/22 04:56:21;;;;;;;6.53;5.10;;;;;;;17.94;100.00;98087.41;4842302;28;104287;-79
2021/06/22 04:58:51;;;;;;;4.95;4.45;;;;;;;17.99;100.00;98086.06;4836918;28;105217;-79
2021/06/22 05:01:19;;;;;;;5.07;4.57;;;;;;;18.06;100.00;98087.03;4836473;28;103651;-79
2021/06/22 05:03:47;;;;;;;9.20;5.85;;;;;;;18.07;100.00;98086.03;4840080;28;104282;-80
2021/06/22 05:06:15;;;;;;;4.53;3.35;;;;;;;18.27;100.00;98081.94;4838433;28;103708;-79
2021/06/22 05:08:44;;;;;;;7.95;6.30;;;;;;;18.20;100.00;98088.97;4839908;29;104975;-77
2021/06/22 05:11:14;;;;;;;7.85;4.90;;;;;;;18.47;100.00;98102.72;4842254;29;104013;-81
2021/06/22 05:13:43;;;;;;;3.92;3.63;;;;;;;18.75;100.00;98113.81;4843737;28;103139;-79
2021/06/22 05:16:11;;;;;;;3.25;3.00;;;;;;;18.97;100.00;98118.38;4848400;28;103172;-78
2021/06/22 05:18:39;;;;;;;7.80;6.18;;;;;;;18.65;100.00;98107.03;4846504;28;104126;-79
2021/06/22 05:21:07;;;;;;;7.93;6.63;;;;;;;18.59;100.00;98111.22;4845803;28;105273;-80
2021/06/22 05:23:35;;;;;;;11.30;7.35;;;;;;;18.61;100.00;98111.06;4845318;28;103239;-81
2021/06/22 05:26:03;;;;;;;10.65;9.55;;;;;;;18.61;100.00;98113.75;4847450;29;103048;-79
2021/06/22 05:28:32;;;;;;;10.15;8.45;;;;;;;18.66;100.00;98120.25;4841623;28;104495;-76
2021/06/22 05:31:00;;;;;;;11.77;9.38;;;;;;;18.72;100.00;98116.88;4844416;28;103254;-84
2021/06/22 05:33:29;;;;;;;11.85;10.43;;;;;;;18.53;100.00;98119.94;4845204;28;102756;-78
2021/06/22 05:35:57;;;;;;;10.70;9.70;;;;;;;18.58;100.00;98124.78;4846425;28;103144;-79
2021/06/22 05:38:25;;;;;;;12.60;11.30;;;;;;;18.62;100.00;98123.41;4840161;28;105906;-79
2021/06/22 05:40:53;;;;;;;12.63;11.32;;;;;;;18.69;100.00;98125.25;4845486;29;104698;-81
2021/06/22 05:43:21;;;;;;;11.05;9.43;;;;;;;18.89;100.00;98126.44;4839112;28;102916;-77
2021/06/22 05:45:50;;;;;;;10.00;9.18;;;;;;;19.04;100.00;98137.22;4819739;29;103379;-83
2021/06/22 05:48:18;;;;;;;9.13;8.18;;;;;;;19.14;100.00;98139.69;4845403;28;104522;-85
2021/06/22 05:50:46;;;;;;;13.32;11.98;;;;;;;19.03;100.00;98139.06;4845607;28;105296;-84
2021/06/22 05:53:14;;;;;;;6.63;6.13;;;;;;;19.22;100.00;98136.94;4849935;29;103071;-82
2021/06/22 05:55:42;;;;;;;13.38;11.98;;;;;;;19.27;100.00;98135.41;4830306;29;104702;-84
2021/06/22 05:58:10;;;;;;;13.18;11.80;;;;;;;19.03;100.00;98149.75;4845404;29;104415;-84
2021/06/22 06:00:38;;;;;;;8.07;7.13;;;;;;;19.19;100.00;98148.00;4849219;28;103754;-84
2021/06/22 06:03:08;;;;;;;10.52;7.18;;;;;;;19.39;100.00;98149.22;4847516;28;103819;-85
2021/06/22 06:05:36;;;;;;;7.05;6.47;;;;;;;19.49;100.00;98145.28;4845462;28;103317;-84
2021/06/22 06:08:05;;;;;;;11.32;10.25;;;;;;;19.30;100.00;98156.47;4844781;28;103910;-83
2021/06/22 06:10:33;;;;;;;14.40;12.90;;;;;;;19.20;100.00;98155.84;4846223;28;105211;-83
2021/06/22 06:13:01;;;;;;;13.43;12.10;;;;;;;19.48;100.00;98156.19;4857710;28;103020;-84
2021/06/22 06:15:29;;;;;;;12.38;11.23;;;;;;;19.66;100.00;98152.19;4848698;29;102785;-83
2021/06/22 06:17:58;;;;;;;9.35;8.45;;;;;;;19.75;100.00;98152.09;4848103;29;105300;-83
2021/06/22 06:20:28;;;;;;;11.77;10.70;;;;;;;19.64;100.00;98154.22;4848756;29;104812;-84
2021/06/22 06:22:57;;;;;;;13.98;12.75;;;;;;;19.45;100.00;98159.22;4837584;29;103461;-83
2021/06/22 06:25:25;;;;;;;16.48;15.05;;;;;;;19.31;100.00;98158.09;4849709;29;103017;-84
2021/06/22 06:27:56;;;;;;;11.98;10.88;;;;;;;19.52;100.00;98157.50;4845199;29;104034;-84
2021/06/22 06:30:28;;;;;;;17.90;15.98;;;;;;;19.33;100.00;98156.09;4848875;29;105114;-83
2021/06/22 06:32:57;;;;;;;12.68;11.60;;;;;;;19.42;100.00;98164.94;4844319;29;102933;-83
2021/06/22 06:35:27;;;;;;;13.70;12.30;;;;;;;19.55;100.00;98174.03;4847555;29;103533;-83
2021/06/22 06:37:56;;;;;;;15.50;14.00;;;;;;;19.66;100.00;98183.50;4845930;29;103501;-82
2021/06/22 06:40:25;;;;;;;14.75;13.23;;;;;;;19.63;100.00;98178.50;4838648;28;104630;-83
2021/06/22 06:42:53;;;;;;;11.18;10.07;;;;;;;19.82;100.00;98194.06;4848723;29;103085;-83
2021/06/22 06:45:21;;;;;;;16.80;13.57;;;;;;;19.95;100.00;98186.25;4833448;29;103527;-83
2021/06/22 06:47:50;;;;;;;16.50;14.82;;;;;;;20.25;100.00;98184.47;4848152;29;103902;-83
2021/06/22 06:50:18;;;;;;;12.02;10.88;;;;;;;20.49;99.65;98186.06;4849141;29;103603;-84
2021/06/22 06:52:48;;;;;;;13.70;11.65;;;;;;;20.50;97.73;98183.19;4848336;29;102915;-84
2021/06/22 06:55:26;;;;;;;12.45;11.25;;;;;;;20.65;98.05;98192.06;4843634;29;102812;-86
2021/06/22 06:57:57;;;;;;;8.55;7.88;;;;;;;20.92;96.39;98187.00;4826708;29;105407;-82
2021/06/22 07:00:33;;;;;;;8.32;7.63;;;;;;;21.13;93.98;98189.78;4847092;28;103886;-84
2021/06/22 07:03:01;;;;;;;12.18;10.65;;;;;;;21.05;93.73;98187.19;4849126;29;102939;-84
2021/06/22 07:05:30;;;;;;;14.88;13.43;;;;;;;20.37;97.69;98191.06;4839232;29;103366;-84
2021/06/22 07:08:01;;;;;;;12.18;10.98;;;;;;;20.44;97.96;98196.50;4849156;29;103242;-84
2021/06/22 07:10:30;;;;;;;18.50;16.60;;;;;;;20.08;98.25;98191.81;4845139;29;105242;-84
2021/06/22 07:12:59;;;;;;;11.77;10.77;;;;;;;20.44;98.36;98193.81;4850226;29;103058;-82
2021/06/22 07:15:28;;;;;;;8.13;7.53;;;;;;;20.86;94.29;98196.66;4848937;29;103393;-83
2021/06/22 07:17:56;;;;;;;7.03;6.43;;;;;;;21.26;94.29;98195.31;4843166;28;106180;-83
2021/06/22 07:20:25;;;;;;;15.82;14.43;;;;;;;20.98;93.45;98197.00;4848455;29;103092;-82
2021/06/22 07:22:53;;;;;;;9.23;8.50;;;;;;;21.17;93.04;98208.00;4846787;29;103256;-82
2021/06/22 07:25:25;;;;;;;8.77;7.82;;;;;;;21.43;92.22;98206.63;4847441;28;103500;-83
2021/06/22 07:27:55;;;;;;;8.13;7.38;;;;;;;21.70;91.23;98213.94;4846744;29;103444;-82
2021/06/22 07:30:24;;;;;;;14.68;12.40;;;;;;;21.75;89.32;98222.28;4840034;29;103635;-83
2021/06/22 07:32:54;;;;;;;9.88;9.02;;;;;;;21.84;90.27;98221.09;4847966;29;102961;-82
2021/06/22 07:35:23;;;;;;;10.00;9.02;;;;;;;22.36;88.50;98220.72;4848050;29;103354;-83
2021/06/22 07:37:51;;;;;;;7.03;6.43;;;;;;;22.84;84.77;98219.81;4845850;28;105271;-85
2021/06/22 07:40:21;;;;;;;13.02;11.65;;;;;;;22.50;85.00;98220.63;4840858;28;104306;-85
2021/06/22 07:42:50;;;;;;;11.40;10.40;;;;;;;22.35;85.22;98219.88;4854285;28;103097;-83
2021/06/22 07:45:18;;;;;;;10.52;9.48;;;;;;;22.44;86.05;98218.72;4846819;28;103801;-84
2021/06/22 07:47:47;;;;;;;7.70;7.03;;;;;;;22.59;86.62;98215.91;4844891;28;103881;-84
2021/06/22 07:50:16;;;;;;;11.77;10.77;;;;;;;22.72;84.47;98215.16;4847848;28;103620;-85
2021/06/22 07:52:44;;;;;;;12.30;9.85;;;;;;;22.82;83.87;98208.38;4846725;28;103253;-82
2021/06/22 07:55:14;;;;;;;8.98;8.18;;;;;;;22.79;83.63;98203.38;4845832;29;103391;-83
2021/06/22 07:57:46;;;;;;;10.57;9.57;;;;;;;22.58;83.72;98203.47;4846029;29;105042;-83
2021/06/22 08:00:37;;;;;;;9.10;7.97;;;;;;;22.65;83.09;98208.94;4846632;28;103927;-82
2021/06/22 08:03:06;;;;;;;11.40;10.35;;;;;;;23.15;80.86;98210.41;4846907;28;103180;-82
2021/06/22 08:05:34;;;;;;;11.25;9.88;;;;;;;23.26;80.87;98224.13;4839853;28;103179;-82
2021/06/22 08:08:03;;;;;;;8.45;7.72;;;;;;;23.65;80.70;98223.41;4845161;29;103445;-83
2021/06/22 08:10:31;;;;;;;9.95;9.05;;;;;;;23.45;79.76;98211.75;4828102;29;104571;-79
2021/06/22 08:13:00;;;;;;;8.77;7.88;;;;;;;23.16;82.26;98207.47;4827273;29;103155;-80
2021/06/22 08:15:29;;;;;;;6.68;6.00;;;;;;;23.54;81.38;98205.97;4846038;29;102782;-78
2021/06/22 08:17:57;;;;;;;7.57;6.85;;;;;;;23.16;81.12;98215.56;4843391;29;104855;-78
2021/06/22 08:20:26;;;;;;;10.27;9.02;;;;;;;22.82;82.54;98221.03;4845336;29;104940;-79
2021/06/22 08:22:55;;;;;;;9.23;7.78;;;;;;;22.41;82.90;98219.09;4838628;28;103197;-79
2021/06/22 08:25:24;;;;;;;8.02;7.30;;;;;;;21.88;85.81;98223.25;4843690;29;103214;-78
2021/06/22 08:27:54;;;;;;;8.80;7.43;;;;;;;22.47;83.12;98222.88;4843183;29;103864;-74
2021/06/22 08:30:26;;;;;;;7.57;6.43;;;;;;;21.91;86.09;98216.66;4843012;29;103897;-74
2021/06/22 08:32:55;;;;;;;7.35;6.30;;;;;;;21.93;86.13;98209.22;4837441;29;103182;-74
2021/06/22 08:35:25;;;;;;;8.70;7.88;;;;;;;21.94;87.78;98211.72;4845715;29;102982;-74
2021/06/22 08:37:54;;;;;;;10.35;9.38;;;;;;;20.93;90.54;98215.53;4838131;29;105088;-74
2021/06/22 08:40:22;;;;;;;10.32;9.35;;;;;;;20.94;90.29;98219.91;4843728;29;104103;-74
2021/06/22 08:42:55;;;;;;;7.43;6.72;;;;;;;21.50;88.22;98226.38;4834953;29;103383;-74
2021/06/22 08:45:25;;;;;;;10.75;7.95;;;;;;;21.27;90.26;98219.31;4846496;29;103289;-76
2021/06/22 08:47:54;;;;;;;9.27;7.10;;;;;;;21.60;90.44;98224.19;4844660;28;104526;-74
2021/06/22 08:50:23;;;;;;;11.05;10.10;;;;;;;20.78;93.54;98228.97;4847198;29;104433;-74
2021/06/22 08:52:51;;;;;;;12.60;10.80;;;;;;;20.47;96.36;98225.63;4847654;28;103129;-74
2021/06/22 08:55:30;;;;;;;12.85;10.85;;;;;;;20.87;94.43;98232.38;4848168;29;103149;-74
2021/06/22 08:58:01;;;;;;;12.13;11.02;;;;;;;20.36;95.29;98236.81;4846231;29;105447;-74
2021/06/22 09:00:35;;;;;;;10.75;9.80;;;;;;;20.67;96.18;98229.44;4848144;28;103686;-83
2021/06/22 09:03:09;;;;;;;12.65;11.38;;;;;;;20.37;97.78;98228.59;4850195;29;103102;-83
2021/06/22 09:05:37;;;;;;;11.85;10.85;;;;;;;20.62;94.91;98226.50;4847836;29;103200;-83
2021/06/22 09:08:16;;;;;;;10.70;9.80;;;;;;;20.91;94.99;98229.16;4849105;29;105378;-83
2021/06/22 09:10:44;;;;;;;12.88;11.77;;;;;;;20.73;95.20;98237.59;4846853;29;104258;-81
2021/06/22 09:13:15;;;;;;;12.65;11.40;;;;;;;20.94;94.94;98244.88;4849626;29;103102;-82
2021/06/22 09:15:46;;;;;;;14.13;12.73;;;;;;;20.84;96.33;98233.59;4847313;29;104591;-81
2021/06/22 09:18:32;;;;;;;13.48;12.07;;;;;;;20.70;97.86;98237.13;4833642;29;105043;-82
2021/06/22 09:21:02;;;;;;;13.18;11.75;;;;;;;21.24;93.92;98248.38;4844667;29;103754;-80
2021/06/22 09:23:32;;;;;;;13.90;11.75;;;;;;;20.78;95.13;98245.06;4847783;29;103033;-83
2021/06/22 09:26:01;;;;;;;12.48;11.30;;;;;;;20.58;95.98;98250.16;4847828;29;103579;-83
2021/06/22 09:28:31;;;;;;;11.65;10.45;;;;;;;20.65;95.63;98250.28;4848469;29;106900;-80
2021/06/22 09:31:02;;;;;;;11.88;10.68;;;;;;;20.74;95.61;98254.53;4849302;29;103679;-83
2021/06/22 09:33:34;;;;;;;13.13;11.93;;;;;;;20.49;96.03;98261.19;4850274;29;104025;-82
2021/06/22 09:36:09;;;;;;;12.57;11.38;;;;;;;20.39;98.52;98260.59;4850291;29;102966;-83
2021/06/22 09:38:39;;;;;;;13.63;12.35;;;;;;;20.62;96.45;98261.38;4849621;29;104276;-83
2021/06/22 09:41:16;;;;;;;12.90;11.63;;;;;;;20.78;96.12;98270.06;4849368;29;103084;-82
2021/06/22 09:43:47;;;;;;;13.80;10.98;;;;;;;20.98;94.46;98262.28;4849268;29;102662;-80
2021/06/22 09:46:18;;;;;;;11.32;10.27;;;;;;;20.97;94.16;98271.34;4849540;29;102942;-82
2021/06/22 09:48:55;;;;;;;11.35;10.30;;;;;;;20.62;94.46;98293.56;4847741;29;103961;-83
2021/06/22 09:51:30;;;;;;;11.80;10.60;;;;;;;20.62;97.24;98299.78;4849033;29;103123;-82
2021/06/22 09:54:13;;;;;;;10.00;9.13;;;;;;;20.79;95.97;98298.59;4831058;29;103724;-82
2021/06/22 09:56:52;;;;;;;10.57;9.57;;;;;;;20.78;96.26;98293.38;4848376;29;103268;-83
2021/06/22 09:59:20;;;;;;;9.52;8.68;;;;;;;20.75;93.80;98293.75;4848472;28;103917;-82
2021/06/22 10:01:52;;;;;;;9.45;8.55;;;;;;;20.85;95.17;98288.13;4844938;28;103873;-80
2021/06/22 10:04:23;;;;;;;9.38;8.52;;;;;;;20.98;92.31;98289.13;4847939;29;103430;-82
2021/06/22 10:06:54;;;;;;;9.85;9.05;;;;;;;20.89;90.22;98298.28;4849117;29;103089;-82
2021/06/22 10:09:24;;;;;;;9.98;9.23;;;;;;;21.06;93.04;98294.41;4836622;29;104026;-80
2021/06/22 10:11:57;;;;;;;10.60;9.57;;;;;;;21.31;91.26;98290.41;4858916;29;106728;-80
2021/06/22 10:14:28;;;;;;;11.13;10.30;;;;;;;20.91;91.22;98293.59;4856842;29;102869;-82
2021/06/22 10:16:59;;;;;;;10.70;9.80;;;;;;;21.13;91.63;98287.31;4848896;29;103033;-81
2021/06/22 10:19:28;;;;;;;11.45;10.40;;;;;;;20.89;91.11;98284.88;4848578;29;105496;-81
2021/06/22 10:21:58;;;;;;;9.98;9.18;;;;;;;20.86;89.93;98279.88;4849159;29;103865;-84
2021/06/22 10:24:28;;;;;;;8.95;8.15;;;;;;;21.53;89.42;98285.09;4847651;29;103603;-83
2021/06/22 10:26:59;;;;;;;9.00;8.30;;;;;;;21.57;86.83;98297.13;4844955;29;103244;-83
2021/06/22 10:29:30;;;;;;;6.97;6.25;;;;;;;22.03;87.07;98306.53;4830019;28;104717;-80
2021/06/22 10:32:01;;;;;;;7.65;7.03;;;;;;;22.24;86.50;98308.38;4822826;29;103854;-84
2021/06/22 10:34:30;;;;;;;5.82;5.32;;;;;;;22.64;84.53;98310.41;4843673;28;103327;-81
2021/06/22 10:37:03;;;;;;;4.28;3.88;;;;;;;23.01;83.31;98311.88;4843040;28;103507;-86
2021/06/22 10:39:35;;;;;;;6.45;5.78;;;;;;;22.74;82.75;98320.81;4832209;29;104912;-86
2021/06/22 10:42:10;;;;;;;5.97;5.40;;;;;;;22.24;85.58;98325.34;4815847;29;104306;-86
2021/06/22 10:44:50;;;;;;;8.18;6.10;;;;;;;21.74;83.86;98322.75;4843734;29;103070;-87
2021/06/22 10:47:31;;;;;;;5.75;5.15;;;;;;;21.57;84.37;98321.31;4841919;28;103454;-86
2021/06/22 10:50:15;;;;;;;4.63;4.18;;;;;;;21.70;84.68;98330.34;4837022;29;104538;-82
2021/06/22 10:53:03;;;;;;;7.45;5.85;;;;;;;21.43;84.95;98319.47;4842054;28;104143;-85
2021/06/22 10:56:17;;;;;;;9.45;7.03;;;;;;;21.41;84.48;98318.84;4843835;29;103078;-85
2021/06/22 10:59:24;;;;;;;7.35;6.68;;;;;;;21.20;86.14;98322.28;4842376;29;103324;-91
2021/06/22 11:02:05;;;;;;;9.30;7.63;;;;;;;21.09;86.92;98323.59;4815537;29;108753;-80
2021/06/22 11:04:35;;;;;;;6.80;6.15;;;;;;;21.51;85.23;98327.44;4842894;29;104016;-82
2021/06/22 11:07:24;;;;;;;7.95;7.15;;;;;;;21.68;83.90;98334.25;4843771;29;103280;-76
2021/06/22 11:10:13;;;;;;;9.32;8.52;;;;;;;21.33;85.66;98331.34;4846703;29;103157;-81
2021/06/22 11:12:52;;;;;;;8.07;7.38;;;;;;;21.69;83.63;98328.72;4847021;29;104420;-76
2021/06/22 11:15:20;;;;;;;8.10;7.30;;;;;;;21.75;84.36;98321.75;4847388;29;103817;-77
2021/06/22 11:17:59;;;;;;;10.02;9.05;;;;;;;21.64;85.98;98330.28;4841758;29;102989;-79
2021/06/22 11:20:34;;;;;;;9.27;8.38;;;;;;;21.59;88.52;98332.69;4847564;29;103107;-79
2021/06/22 11:23:08;;;;;;;8.75;7.95;;;;;;;21.61;87.12;98333.38;4847671;29;104355;-87
2021/06/22 11:25:54;;;;;;;11.77;10.68;;;;;;;20.64;90.48;98339.84;4849071;29;103508;-82
2021/06/22 11:28:25;;;;;;;11.02;9.98;;;;;;;20.81;91.37;98330.59;4844671;29;103198;-81
2021/06/22 11:30:57;;;;;;;8.85;8.02;;;;;;;21.19;89.36;98318.78;4836640;29;102923;-83
2021/06/22 11:33:33;;;;;;;11.05;8.93;;;;;;;20.71;91.60;98324.69;4847731;29;104044;-84
2021/06/22 11:36:29;;;;;;;8.43;7.75;;;;;;;20.81;90.82;98325.25;4847036;29;103647;-78
2021/06/22 11:39:19;;;;;;;6.82;6.22;;;;;;;21.21;90.20;98332.03;4847218;29;103345;-84
2021/06/22 11:42:18;;;;;;;7.43;6.82;;;;;;;20.81;89.08;98328.75;4847657;29;103551;-79
2021/06/22 11:44:49;;;;;;;10.65;9.57;;;;;;;20.53;92.82;98329.53;4797442;29;104906;-75
2021/06/22 11:47:54;;;;;;;8.93;7.90;;;;;;;20.30;90.96;98326.06;4843371;29;103097;-77
2021/06/22 11:50:28;;;;;;;7.40;6.70;;;;;;;20.44;90.72;98322.59;4848523;29;103460;-85
2021/06/22 11:53:14;;;;;;;5.20;4.80;;;;;;;20.44;89.20;98318.06;4825087;29;103662;-86
2021/06/22 11:55:48;;;;;;;8.48;7.57;;;;;;;20.38;88.29;98326.03;4828911;29;105623;-84
2021/06/22 11:58:22;;;;;;;7.00;6.38;;;;;;;20.56;89.16;98324.66;4848619;28;103661;-84
2021/06/22 12:00:56;;;;;;;4.90;4.50;;;;;;;20.64;90.03;98329.09;4845637;29;103407;-86
2021/06/22 12:03:26;;;;;;;8.73;7.78;;;;;;;20.64;88.49;98326.41;4846162;29;102797;-81